Time;durP1;ratioP1;P1;durP2;ratioP2;P2;SDS_P1;SDS_P2;PMS_P1;PMS_P2;Temp;Humidity;BMP_temperature;BMP_pressure;BME280_temperature;BME280_humidity;BME280_pressure;Samples;Min_cycle;Max_cycle;Signal;HPM_P1;HPM_P2
2023/02/08 00:00:32;;;;;;;11.05;5.65;;;;;;;;;;4945388;29;20083;-77
2023/02/08 00:02:58;;;;;;;13.18;5.20;;;;;;;;;;4941610;29;20024;-77
2023/02/08 00:05:24;;;;;;;13.75;5.75;;;;;;;;;;4948324;29;20028;-76
2023/02/08 00:07:50;;;;;;;9.00;5.07;;;;;;;;;;4953448;29;20027;-75
2023/02/08 00:10:17;;;;;;;7.95;5.30;;;;;;;;;;4952449;29;20052;-75
2023/02/08 00:12:43;;;;;;;17.92;5.57;;;;;;;;;;4934970;29;20031;-77
2023/02/08 00:15:09;;;;;;;6.45;4.43;;;;;;;;;;4947890;29;20038;-77
2023/02/08 00:17:35;;;;;;;11.70;6.00;;;;;;;;;;4950810;29;20155;-76
2023/02/08 00:20:01;;;;;;;9.10;5.53;;;;;;;;;;4932464;29;20027;-77
2023/02/08 00:22:27;;;;;;;9.55;5.85;;;;;;;;;;4949799;29;20056;-76
2023/02/08 00:24:53;;;;;;;12.52;5.50;;;;;;;;;;4948893;29;20027;-76
2023/02/08 00:27:19;;;;;;;12.80;5.88;;;;;;;;;;4939173;29;20024;-76
2023/02/08 00:29:46;;;;;;;12.85;5.72;;;;;;;;;;4948891;29;20015;-75
2023/02/08 00:32:12;;;;;;;9.10;5.53;;;;;;;;;;4948950;29;20028;-77
2023/02/08 00:34:38;;;;;;;9.18;4.88;;;;;;;;;;4948631;29;20383;-76
2023/02/08 00:37:04;;;;;;;12.30;5.45;;;;;;;;;;4948358;29;20028;-76
2023/02/08 00:39:30;;;;;;;10.57;4.50;;;;;;;;;;4944197;29;20107;-77
2023/02/08 00:41:56;;;;;;;7.00;4.75;;;;;;;;;;4945483;29;20031;-77
2023/02/08 00:44:23;;;;;;;6.78;4.78;;;;;;;;;;4953074;29;20030;-75
2023/02/08 00:46:49;;;;;;;15.55;4.97;;;;;;;;;;4949146;29;20024;-76
2023/02/08 00:49:15;;;;;;;8.05;4.35;;;;;;;;;;4941315;29;20111;-75
2023/02/08 00:51:41;;;;;;;10.80;4.78;;;;;;;;;;4921711;29;20028;-76
2023/02/08 00:54:12;;;;;;;8.07;4.70;;;;;;;;;;4932135;29;20020;-76
2023/02/08 00:56:38;;;;;;;8.38;4.78;;;;;;;;;;4948847;29;20164;-76
2023/02/08 00:59:04;;;;;;;7.38;4.13;;;;;;;;;;4944403;29;20036;-75
2023/02/08 01:01:30;;;;;;;5.85;3.88;;;;;;;;;;4943927;29;20034;-76
2023/02/08 01:03:56;;;;;;;9.98;4.43;;;;;;;;;;4944047;29;20024;-75
2023/02/08 01:06:22;;;;;;;7.82;4.05;;;;;;;;;;4948426;29;20023;-76
2023/02/08 01:08:48;;;;;;;8.45;3.95;;;;;;;;;;4948301;29;20039;-77
2023/02/08 01:11:23;;;;;;;9.07;3.83;;;;;;;;;;4944616;29;20038;-80
2023/02/08 01:13:50;;;;;;;8.23;3.97;;;;;;;;;;4946146;29;20031;-76
2023/02/08 01:16:18;;;;;;;5.35;3.70;;;;;;;;;;4948425;29;20043;-77
2023/02/08 01:18:44;;;;;;;7.38;3.78;;;;;;;;;;4948819;29;20024;-77
2023/02/08 01:21:12;;;;;;;8.50;3.70;;;;;;;;;;4947953;29;20055;-76
2023/02/08 01:23:39;;;;;;;10.05;4.03;;;;;;;;;;4922896;29;20032;-77
2023/02/08 01:26:06;;;;;;;7.78;4.05;;;;;;;;;;4932009;29;20020;-75
2023/02/08 01:28:32;;;;;;;6.53;4.10;;;;;;;;;;4948795;29;20027;-76
2023/02/08 01:30:59;;;;;;;5.13;3.60;;;;;;;;;;4949055;29;20035;-74
2023/02/08 01:33:25;;;;;;;7.07;4.38;;;;;;;;;;4947457;29;20028;-76
2023/02/08 01:35:51;;;;;;;10.20;3.30;;;;;;;;;;4948705;29;20039;-77
2023/02/08 01:38:18;;;;;;;8.27;3.72;;;;;;;;;;4948581;29;20038;-78
2023/02/08 01:40:44;;;;;;;8.15;3.35;;;;;;;;;;4948852;29;20031;-76
2023/02/08 01:43:20;;;;;;;6.78;3.92;;;;;;;;;;4948515;29;20196;-76
2023/02/08 01:45:46;;;;;;;8.85;4.28;;;;;;;;;;4949040;29;20024;-76
2023/02/08 01:48:16;;;;;;;9.48;3.47;;;;;;;;;;4948427;29;20454;-76
2023/02/08 01:50:45;;;;;;;10.35;3.70;;;;;;;;;;4937042;29;20447;-75
2023/02/08 01:53:11;;;;;;;8.32;4.20;;;;;;;;;;4929227;29;20028;-75
2023/02/08 01:55:39;;;;;;;10.05;5.25;;;;;;;;;;4941298;29;20054;-77
2023/02/08 01:58:07;;;;;;;8.68;4.15;;;;;;;;;;4928625;29;20417;-75
2023/02/08 02:00:33;;;;;;;7.70;4.75;;;;;;;;;;4935464;29;20100;-77
2023/02/08 02:03:00;;;;;;;12.43;4.70;;;;;;;;;;4936458;29;20038;-77
2023/02/08 02:05:29;;;;;;;9.90;4.60;;;;;;;;;;4927384;29;20036;-76
2023/02/08 02:07:57;;;;;;;8.27;4.57;;;;;;;;;;4936081;29;20036;-76
2023/02/08 02:10:31;;;;;;;10.88;5.15;;;;;;;;;;4945651;29;20051;-79
2023/02/08 02:13:00;;;;;;;13.25;5.28;;;;;;;;;;4948944;29;20031;-77
2023/02/08 02:15:26;;;;;;;10.57;5.07;;;;;;;;;;4951242;29;20034;-76
2023/02/08 02:17:53;;;;;;;6.60;4.68;;;;;;;;;;4951408;29;20039;-75
2023/02/08 02:20:21;;;;;;;9.43;4.63;;;;;;;;;;4942430;29;20079;-77
2023/02/08 02:23:10;;;;;;;11.07;5.88;;;;;;;;;;4948748;29;20115;-74
2023/02/08 02:25:39;;;;;;;11.13;4.88;;;;;;;;;;4946936;29;20087;-75
2023/02/08 02:28:14;;;;;;;11.85;5.55;;;;;;;;;;4951233;29;20032;-74
2023/02/08 02:31:01;;;;;;;13.55;6.40;;;;;;;;;;4932475;29;20032;-78
2023/02/08 02:33:52;;;;;;;9.23;5.47;;;;;;;;;;4954135;29;20024;-75
2023/02/08 02:36:23;;;;;;;10.00;5.25;;;;;;;;;;4925789;29;20462;-77
2023/02/08 02:38:55;;;;;;;13.60;6.60;;;;;;;;;;4951083;29;20054;-75
2023/02/08 02:44:37;;;;;;;10.45;5.93;;;;;;;;;;4951778;29;20086;-77
2023/02/08 02:47:10;;;;;;;12.60;6.00;;;;;;;;;;4951716;29;20079;-76
2023/02/08 02:49:38;;;;;;;9.70;6.07;;;;;;;;;;4951943;29;20059;-75
2023/02/08 02:52:07;;;;;;;13.05;5.97;;;;;;;;;;4951271;29;20034;-76
2023/02/08 02:54:40;;;;;;;16.08;6.00;;;;;;;;;;4951200;29;20066;-75
2023/02/08 02:57:07;;;;;;;9.07;5.53;;;;;;;;;;4950580;29;20031;-76
2023/02/08 02:59:34;;;;;;;11.32;5.47;;;;;;;;;;4950081;29;20167;-76
2023/02/08 03:02:01;;;;;;;8.75;4.57;;;;;;;;;;4950916;29;20028;-75
2023/02/08 03:04:33;;;;;;;17.77;6.15;;;;;;;;;;4951223;29;20490;-75
2023/02/08 03:07:02;;;;;;;19.30;6.47;;;;;;;;;;4947702;29;20052;-77
2023/02/08 03:09:31;;;;;;;14.40;5.35;;;;;;;;;;4951603;29;20062;-75
2023/02/08 03:12:09;;;;;;;11.43;5.72;;;;;;;;;;4950836;29;20032;-76
2023/02/08 03:14:47;;;;;;;12.00;4.57;;;;;;;;;;4933537;29;20466;-76
2023/02/08 03:17:19;;;;;;;10.88;4.50;;;;;;;;;;4950494;29;20036;-76
2023/02/08 03:19:53;;;;;;;12.40;4.65;;;;;;;;;;4948260;29;20101;-77
2023/02/08 03:22:26;;;;;;;13.25;4.70;;;;;;;;;;4936696;29;20020;-74
2023/02/08 03:24:59;;;;;;;8.70;5.20;;;;;;;;;;4950594;29;20079;-75
2023/02/08 03:27:34;;;;;;;10.02;5.03;;;;;;;;;;4946704;29;20079;-75
2023/02/08 03:30:10;;;;;;;10.73;4.63;;;;;;;;;;4948888;29;20079;-76
2023/02/08 03:32:42;;;;;;;9.98;5.25;;;;;;;;;;4942962;29;20031;-75
2023/02/08 03:35:11;;;;;;;9.45;5.57;;;;;;;;;;4951019;29;20063;-75
2023/02/08 03:37:54;;;;;;;11.57;4.63;;;;;;;;;;4950365;29;20621;-75
2023/02/08 03:40:32;;;;;;;12.27;5.07;;;;;;;;;;4941718;29;20029;-76
2023/02/08 03:43:00;;;;;;;10.30;5.18;;;;;;;;;;4934064;29;20043;-76
2023/02/08 03:45:37;;;;;;;11.90;5.25;;;;;;;;;;4937539;29;20032;-74
2023/02/08 03:48:06;;;;;;;14.32;4.97;;;;;;;;;;4941621;29;20115;-75
2023/02/08 03:50:34;;;;;;;10.63;5.32;;;;;;;;;;4941535;29;20035;-75
2023/02/08 03:53:01;;;;;;;12.23;4.75;;;;;;;;;;4950341;29;20032;-76
2023/02/08 03:55:29;;;;;;;8.35;4.57;;;;;;;;;;4950206;29;20038;-76
2023/02/08 03:58:18;;;;;;;13.10;5.32;;;;;;;;;;4950108;29;20028;-76
2023/02/08 04:00:47;;;;;;;15.60;5.05;;;;;;;;;;4914857;29;20051;-77
2023/02/08 04:03:17;;;;;;;9.98;4.18;;;;;;;;;;4935607;29;20023;-75
2023/02/08 04:05:44;;;;;;;10.20;5.03;;;;;;;;;;4956955;29;20091;-76
2023/02/08 04:08:10;;;;;;;8.02;3.70;;;;;;;;;;4950555;29;20032;-75
2023/02/08 04:10:36;;;;;;;10.85;4.40;;;;;;;;;;4935496;29;20058;-75
2023/02/08 04:13:03;;;;;;;8.65;4.10;;;;;;;;;;4943402;29;20028;-75
2023/02/08 04:15:29;;;;;;;8.02;4.30;;;;;;;;;;4947289;29;20024;-74
2023/02/08 04:17:55;;;;;;;15.05;4.85;;;;;;;;;;4953915;29;20082;-76
2023/02/08 04:20:21;;;;;;;14.45;4.43;;;;;;;;;;4945059;29;20030;-75
2023/02/08 04:22:47;;;;;;;10.27;5.07;;;;;;;;;;4949586;29;20047;-76
2023/02/08 04:25:14;;;;;;;9.63;4.18;;;;;;;;;;4932103;29;20031;-75
2023/02/08 04:27:40;;;;;;;8.50;4.15;;;;;;;;;;4935106;29;20027;-75
2023/02/08 04:30:06;;;;;;;13.80;5.00;;;;;;;;;;4949581;29;20368;-75
2023/02/08 04:32:33;;;;;;;10.50;4.35;;;;;;;;;;4949355;29;20027;-77
2023/02/08 04:34:59;;;;;;;11.18;3.88;;;;;;;;;;4948419;29;20079;-75
2023/02/08 04:37:25;;;;;;;11.77;4.10;;;;;;;;;;4944530;29;20498;-75
2023/02/08 04:39:51;;;;;;;11.75;3.60;;;;;;;;;;4939193;29;20074;-75
2023/02/08 04:42:17;;;;;;;7.40;3.83;;;;;;;;;;4948488;29;20032;-78
2023/02/08 04:44:43;;;;;;;12.20;4.25;;;;;;;;;;4931577;29;20027;-78
2023/02/08 04:47:09;;;;;;;6.93;4.68;;;;;;;;;;4946510;29;20031;-77
2023/02/08 04:49:35;;;;;;;12.20;4.85;;;;;;;;;;4932147;29;20055;-76
2023/02/08 04:52:01;;;;;;;19.10;4.68;;;;;;;;;;4948828;29;20031;-76
2023/02/08 04:54:27;;;;;;;12.65;4.30;;;;;;;;;;4948296;29;20060;-76
2023/02/08 04:56:53;;;;;;;6.82;3.63;;;;;;;;;;4946268;29;20027;-77
2023/02/08 04:59:19;;;;;;;8.68;4.10;;;;;;;;;;4930962;29;20028;-77
2023/02/08 05:01:45;;;;;;;7.70;3.92;;;;;;;;;;4941781;29;20669;-76
2023/02/08 05:04:11;;;;;;;7.75;4.55;;;;;;;;;;4947894;29;20050;-76
2023/02/08 05:06:37;;;;;;;10.20;4.45;;;;;;;;;;4945123;29;20031;-78
2023/02/08 05:09:06;;;;;;;6.07;3.50;;;;;;;;;;4943671;29;20148;-76
2023/02/08 05:11:32;;;;;;;12.77;4.85;;;;;;;;;;4943224;29;20046;-76
2023/02/08 05:13:58;;;;;;;9.02;4.35;;;;;;;;;;4942304;29;20036;-76
2023/02/08 05:16:24;;;;;;;8.93;3.70;;;;;;;;;;4943968;29;20034;-76
2023/02/08 05:18:50;;;;;;;8.30;3.90;;;;;;;;;;4943868;29;20070;-76
2023/02/08 05:21:16;;;;;;;8.45;3.50;;;;;;;;;;4942578;29;20039;-76
2023/02/08 05:23:42;;;;;;;6.53;3.70;;;;;;;;;;4948413;29;20087;-76
2023/02/08 05:26:10;;;;;;;7.38;3.53;;;;;;;;;;4938637;29;20562;-76
2023/02/08 05:28:36;;;;;;;9.20;4.30;;;;;;;;;;4911194;29;20030;-76
2023/02/08 05:31:19;;;;;;;8.48;3.38;;;;;;;;;;4939020;29;20035;-77
2023/02/08 05:33:45;;;;;;;11.18;3.40;;;;;;;;;;4917174;29;20028;-76
2023/02/08 05:36:11;;;;;;;10.63;3.60;;;;;;;;;;4945083;29;20047;-76
2023/02/08 05:38:37;;;;;;;13.70;3.80;;;;;;;;;;4947577;29;20023;-76
2023/02/08 05:41:04;;;;;;;11.82;3.63;;;;;;;;;;4947644;29;20027;-75
2023/02/08 05:43:30;;;;;;;8.27;3.30;;;;;;;;;;4930492;29;20047;-75
2023/02/08 05:45:56;;;;;;;11.57;3.50;;;;;;;;;;4947409;29;20028;-75
2023/02/08 05:48:22;;;;;;;8.88;2.78;;;;;;;;;;4947433;29;20031;-74
2023/02/08 05:50:48;;;;;;;8.48;2.83;;;;;;;;;;4934038;29;20032;-75
2023/02/08 05:53:14;;;;;;;13.02;3.30;;;;;;;;;;4930315;29;20020;-76
2023/02/08 05:55:43;;;;;;;5.88;2.80;;;;;;;;;;4945312;29;20028;-78
2023/02/08 05:58:09;;;;;;;14.90;4.35;;;;;;;;;;4946862;29;20038;-76
2023/02/08 06:00:35;;;;;;;7.55;3.95;;;;;;;;;;4949070;29;20042;-78
2023/02/08 06:03:02;;;;;;;8.52;4.28;;;;;;;;;;4947883;29;20486;-76
2023/02/08 06:05:28;;;;;;;9.00;4.18;;;;;;;;;;4946809;29;20062;-77
2023/02/08 06:07:54;;;;;;;13.77;4.80;;;;;;;;;;4945902;29;20028;-76
2023/02/08 06:10:20;;;;;;;7.70;4.82;;;;;;;;;;4877616;29;1538586;-76
2023/02/08 06:12:46;;;;;;;12.50;3.95;;;;;;;;;;4947130;29;20038;-76
2023/02/08 06:15:12;;;;;;;10.32;4.65;;;;;;;;;;4928962;29;20055;-79
2023/02/08 06:17:38;;;;;;;10.95;4.20;;;;;;;;;;4947388;29;20032;-77
2023/02/08 06:20:04;;;;;;;6.53;4.35;;;;;;;;;;4937243;29;20034;-75
2023/02/08 06:22:31;;;;;;;10.68;4.30;;;;;;;;;;4948338;29;20020;-75
2023/02/08 06:24:57;;;;;;;12.93;4.75;;;;;;;;;;4948145;29;20020;-75
2023/02/08 06:27:23;;;;;;;8.10;4.38;;;;;;;;;;4948405;29;20032;-75
2023/02/08 06:29:49;;;;;;;11.63;4.55;;;;;;;;;;4946781;29;20032;-76
2023/02/08 06:32:15;;;;;;;11.45;4.65;;;;;;;;;;4947928;29;20367;-77
2023/02/08 06:34:41;;;;;;;16.00;5.05;;;;;;;;;;4947268;29;20027;-76
2023/02/08 06:37:07;;;;;;;7.47;4.10;;;;;;;;;;4944575;29;20120;-76
2023/02/08 06:39:33;;;;;;;9.73;4.53;;;;;;;;;;4946887;29;20028;-78
2023/02/08 06:42:00;;;;;;;10.50;4.63;;;;;;;;;;4937836;29;20043;-76
2023/02/08 06:44:26;;;;;;;14.27;4.93;;;;;;;;;;4947188;29;20030;-78
2023/02/08 06:46:52;;;;;;;7.53;3.85;;;;;;;;;;4947377;29;20031;-76
2023/02/08 06:49:18;;;;;;;20.38;5.13;;;;;;;;;;4930165;29;20431;-76
2023/02/08 06:51:44;;;;;;;7.30;3.80;;;;;;;;;;4940790;29;20035;-76
2023/02/08 06:54:10;;;;;;;11.60;3.85;;;;;;;;;;4944740;29;20035;-78
2023/02/08 06:56:36;;;;;;;15.25;5.63;;;;;;;;;;4961316;29;20099;-77
2023/02/08 06:59:03;;;;;;;6.97;4.10;;;;;;;;;;4946501;29;20487;-77
2023/02/08 07:01:29;;;;;;;8.75;3.50;;;;;;;;;;4933876;29;20036;-76
2023/02/08 07:03:55;;;;;;;10.25;4.15;;;;;;;;;;4950116;29;20028;-76
2023/02/08 07:06:21;;;;;;;11.05;3.60;;;;;;;;;;4948247;29;20032;-76
2023/02/08 07:08:47;;;;;;;9.10;4.00;;;;;;;;;;4950690;29;20062;-76
2023/02/08 07:11:15;;;;;;;9.02;4.40;;;;;;;;;;4951001;29;20032;-77
2023/02/08 07:13:41;;;;;;;10.80;4.38;;;;;;;;;;4935370;29;20047;-76
2023/02/08 07:16:08;;;;;;;9.95;4.05;;;;;;;;;;4948364;29;20089;-75
2023/02/08 07:18:34;;;;;;;14.43;3.85;;;;;;;;;;4937949;29;20031;-76
2023/02/08 07:21:00;;;;;;;9.50;4.20;;;;;;;;;;4970108;29;20028;-77
2023/02/08 07:23:26;;;;;;;7.97;3.97;;;;;;;;;;4953274;29;20046;-74
2023/02/08 07:25:57;;;;;;;10.88;4.13;;;;;;;;;;4951009;29;20031;-76
2023/02/08 07:28:23;;;;;;;14.02;4.05;;;;;;;;;;4949447;29;20028;-75
2023/02/08 07:30:49;;;;;;;8.70;3.75;;;;;;;;;;4938548;29;20036;-76
2023/02/08 07:33:15;;;;;;;12.63;4.40;;;;;;;;;;4947370;29;20032;-76
2023/02/08 07:35:41;;;;;;;10.85;3.70;;;;;;;;;;4951115;29;20545;-75
2023/02/08 07:38:07;;;;;;;7.30;4.93;;;;;;;;;;4937727;29;20466;-76
2023/02/08 07:40:33;;;;;;;13.18;4.70;;;;;;;;;;4950837;29;20372;-75
2023/02/08 07:42:59;;;;;;;12.45;5.00;;;;;;;;;;4950575;29;20028;-76
2023/02/08 07:45:25;;;;;;;11.07;6.15;;;;;;;;;;4950882;29;20019;-76
2023/02/08 07:47:51;;;;;;;9.35;4.13;;;;;;;;;;4933447;29;20038;-75
2023/02/08 07:50:18;;;;;;;10.88;5.07;;;;;;;;;;4945109;29;20035;-77
2023/02/08 07:52:49;;;;;;;10.38;4.38;;;;;;;;;;4932531;29;20036;-75
2023/02/08 07:55:19;;;;;;;8.73;4.47;;;;;;;;;;4938955;29;20036;-78
2023/02/08 07:57:49;;;;;;;14.55;3.88;;;;;;;;;;4940972;29;20034;-77
2023/02/08 08:00:16;;;;;;;8.18;4.22;;;;;;;;;;4939688;29;20031;-77
2023/02/08 08:02:42;;;;;;;8.50;3.65;;;;;;;;;;4939402;29;20032;-77
2023/02/08 08:05:09;;;;;;;12.48;4.00;;;;;;;;;;4934003;29;20027;-76
2023/02/08 08:07:35;;;;;;;12.05;4.05;;;;;;;;;;4940941;29;20038;-77
2023/02/08 08:10:01;;;;;;;12.32;4.85;;;;;;;;;;4940780;29;20040;-74
2023/02/08 08:12:27;;;;;;;7.80;4.53;;;;;;;;;;4917858;29;20039;-77
2023/02/08 08:14:54;;;;;;;11.32;3.53;;;;;;;;;;4926740;29;20032;-75
2023/02/08 08:17:20;;;;;;;7.47;3.92;;;;;;;;;;4928841;29;20234;-75
2023/02/08 08:19:46;;;;;;;12.18;4.30;;;;;;;;;;4935457;29;20368;-75
2023/02/08 08:22:12;;;;;;;6.68;3.90;;;;;;;;;;4933694;29;20027;-77
2023/02/08 08:24:42;;;;;;;7.88;3.25;;;;;;;;;;4935906;29;20033;-78
2023/02/08 08:27:08;;;;;;;15.00;4.38;;;;;;;;;;4934871;29;20483;-77
2023/02/08 08:29:35;;;;;;;11.82;3.42;;;;;;;;;;4932359;29;20035;-78
2023/02/08 08:32:03;;;;;;;9.63;3.28;;;;;;;;;;4927682;29;20032;-77
2023/02/08 08:34:29;;;;;;;5.88;3.22;;;;;;;;;;4932423;29;20487;-77
2023/02/08 08:36:59;;;;;;;13.98;3.50;;;;;;;;;;4928810;29;20032;-75
2023/02/08 08:39:26;;;;;;;7.00;3.35;;;;;;;;;;4933486;29;20027;-77
2023/02/08 08:41:52;;;;;;;12.02;3.42;;;;;;;;;;4931355;29;20051;-75
2023/02/08 08:44:18;;;;;;;8.50;3.42;;;;;;;;;;4935407;29;20559;-78
2023/02/08 08:46:44;;;;;;;10.27;3.47;;;;;;;;;;4934728;29;20031;-77
2023/02/08 08:49:10;;;;;;;12.93;3.42;;;;;;;;;;4934583;29;20165;-75
2023/02/08 08:51:36;;;;;;;9.05;3.47;;;;;;;;;;4928488;29;20032;-75
2023/02/08 08:54:03;;;;;;;12.27;3.72;;;;;;;;;;4932970;29;20286;-80
2023/02/08 08:56:29;;;;;;;8.93;3.20;;;;;;;;;;4942152;29;20028;-75
2023/02/08 08:58:55;;;;;;;7.75;3.33;;;;;;;;;;4941622;29;20383;-76
2023/02/08 09:01:21;;;;;;;9.02;3.42;;;;;;;;;;4939901;29;20020;-77
2023/02/08 09:03:47;;;;;;;8.57;3.05;;;;;;;;;;4938317;29;20028;-76
2023/02/08 09:06:13;;;;;;;10.45;3.90;;;;;;;;;;4936324;29;20096;-77
2023/02/08 09:08:39;;;;;;;8.27;2.97;;;;;;;;;;4925926;29;20035;-76
2023/02/08 09:11:09;;;;;;;8.05;3.25;;;;;;;;;;4927575;29;20048;-77
2023/02/08 09:13:35;;;;;;;7.30;3.28;;;;;;;;;;4926447;29;20028;-78
2023/02/08 09:16:09;;;;;;;10.90;3.33;;;;;;;;;;4929153;29;20039;-76
2023/02/08 09:18:35;;;;;;;6.50;2.60;;;;;;;;;;4924237;29;20486;-77
2023/02/08 09:21:08;;;;;;;8.63;3.00;;;;;;;;;;4920235;29;20031;-79
2023/02/08 09:23:35;;;;;;;8.75;3.50;;;;;;;;;;4934127;29;20032;-78
2023/02/08 09:26:04;;;;;;;10.73;3.63;;;;;;;;;;4924856;29;20489;-78
2023/02/08 09:28:30;;;;;;;7.72;3.28;;;;;;;;;;4930478;29;20340;-78
2023/02/08 09:30:56;;;;;;;8.32;3.30;;;;;;;;;;4929151;29;20044;-79
2023/02/08 09:33:22;;;;;;;10.65;3.35;;;;;;;;;;4912937;29;20032;-79
2023/02/08 09:35:48;;;;;;;8.32;3.55;;;;;;;;;;4927979;29;20031;-79
2023/02/08 09:38:14;;;;;;;9.15;3.72;;;;;;;;;;4925522;29;20107;-77
2023/02/08 09:40:53;;;;;;;9.60;3.22;;;;;;;;;;4927201;29;20034;-80
2023/02/08 09:43:45;;;;;;;11.63;4.30;;;;;;;;;;4935046;29;20034;-79
2023/02/08 09:46:15;;;;;;;5.60;2.92;;;;;;;;;;4935327;29;20020;-78
2023/02/08 09:48:41;;;;;;;9.95;3.30;;;;;;;;;;4931126;29;20530;-78
2023/02/08 09:51:25;;;;;;;8.18;3.60;;;;;;;;;;4936149;29;20023;-80
2023/02/08 09:53:55;;;;;;;12.95;3.22;;;;;;;;;;4930699;29;20031;-79
2023/02/08 09:56:26;;;;;;;9.07;3.40;;;;;;;;;;4928495;29;20169;-78
2023/02/08 09:58:53;;;;;;;10.35;2.92;;;;;;;;;;4926525;29;20932;-78
2023/02/08 10:01:27;;;;;;;9.05;3.83;;;;;;;;;;4921970;29;20572;-78
2023/02/08 10:03:56;;;;;;;12.75;3.47;;;;;;;;;;4925817;29;20043;-78
2023/02/08 10:06:22;;;;;;;9.05;2.75;;;;;;;;;;4912034;29;20039;-78
2023/02/08 10:08:52;;;;;;;5.10;3.53;;;;;;;;;;4912685;29;20031;-80
2023/02/08 10:11:42;;;;;;;11.02;3.63;;;;;;;;;;4932787;29;20040;-77
2023/02/08 10:14:14;;;;;;;5.13;2.78;;;;;;;;;;4931560;29;20158;-78
2023/02/08 10:16:43;;;;;;;7.75;3.20;;;;;;;;;;4929664;29;20486;-81
2023/02/08 10:19:18;;;;;;;9.90;3.22;;;;;;;;;;4929776;29;20542;-80
2023/02/08 10:22:00;;;;;;;4.88;2.95;;;;;;;;;;4922455;29;20042;-78
2023/02/08 10:24:26;;;;;;;10.10;3.10;;;;;;;;;;4943636;29;20086;-78
2023/02/08 10:27:00;;;;;;;8.48;2.92;;;;;;;;;;4942760;29;20031;-79
2023/02/08 10:29:42;;;;;;;7.93;3.55;;;;;;;;;;4932554;29;20028;-76
2023/02/08 10:32:34;;;;;;;10.48;3.95;;;;;;;;;;4935269;29;20115;-79
2023/02/08 10:35:11;;;;;;;6.35;4.43;;;;;;;;;;4921153;29;20023;-78
2023/02/08 10:37:39;;;;;;;5.07;2.88;;;;;;;;;;4941570;29;20031;-77
2023/02/08 10:40:16;;;;;;;7.97;3.30;;;;;;;;;;4933361;29;20028;-77
2023/02/08 10:42:45;;;;;;;9.90;3.00;;;;;;;;;;4937548;29;20028;-78
2023/02/08 10:45:11;;;;;;;8.93;2.97;;;;;;;;;;4927398;29;20657;-76
2023/02/08 10:47:48;;;;;;;6.57;3.45;;;;;;;;;;4927528;29;20154;-77
2023/02/08 10:50:20;;;;;;;10.07;3.40;;;;;;;;;;4926977;29;20918;-78
2023/02/08 10:52:47;;;;;;;11.43;3.40;;;;;;;;;;4908417;29;20039;-77
2023/02/08 10:55:15;;;;;;;12.40;3.67;;;;;;;;;;4910410;29;20024;-79
2023/02/08 10:57:42;;;;;;;10.88;3.90;;;;;;;;;;4917486;29;20118;-78
2023/02/08 11:00:13;;;;;;;11.27;3.35;;;;;;;;;;4921706;29;20024;-78
2023/02/08 11:02:41;;;;;;;9.70;4.13;;;;;;;;;;4919277;29;20152;-78
2023/02/08 11:05:33;;;;;;;5.20;2.88;;;;;;;;;;4910998;29;20024;-78
2023/02/08 11:08:09;;;;;;;7.28;2.97;;;;;;;;;;4924642;29;20044;-78
2023/02/08 11:10:36;;;;;;;7.82;3.28;;;;;;;;;;4933662;29;20708;-78
2023/02/08 11:13:02;;;;;;;9.93;3.38;;;;;;;;;;4942134;29;20098;-77
2023/02/08 11:15:47;;;;;;;10.73;3.53;;;;;;;;;;4925484;29;20060;-78
2023/02/08 11:18:22;;;;;;;9.38;2.90;;;;;;;;;;4941001;29;20054;-78
2023/02/08 11:20:50;;;;;;;5.88;3.38;;;;;;;;;;4939796;29;20054;-78
2023/02/08 11:23:37;;;;;;;11.05;4.07;;;;;;;;;;4937098;29;20529;-79
2023/02/08 11:26:18;;;;;;;7.40;3.33;;;;;;;;;;4945475;29;20031;-77
2023/02/08 11:28:57;;;;;;;7.63;3.45;;;;;;;;;;4930672;29;20035;-76
2023/02/08 11:31:23;;;;;;;12.98;4.57;;;;;;;;;;4944199;29;20043;-77
2023/02/08 11:34:03;;;;;;;7.93;2.95;;;;;;;;;;4920409;29;20578;-78
2023/02/08 11:36:30;;;;;;;7.00;2.78;;;;;;;;;;4950241;29;20118;-78
2023/02/08 11:38:56;;;;;;;12.02;3.95;;;;;;;;;;4944339;29;20119;-76
2023/02/08 11:41:23;;;;;;;12.30;3.58;;;;;;;;;;4940388;29;20031;-79
2023/02/08 11:43:55;;;;;;;9.20;3.78;;;;;;;;;;4919153;29;20106;-79
2023/02/08 11:46:26;;;;;;;10.15;3.30;;;;;;;;;;4940918;29;20043;-78
2023/02/08 11:48:53;;;;;;;10.50;3.28;;;;;;;;;;4942928;29;20036;-77
2023/02/08 11:51:38;;;;;;;9.43;3.30;;;;;;;;;;4948882;29;20087;-78
2023/02/08 11:54:05;;;;;;;8.00;3.60;;;;;;;;;;4919660;29;20055;-79
2023/02/08 11:56:32;;;;;;;5.90;3.60;;;;;;;;;;4945644;29;20374;-78
2023/02/08 11:59:17;;;;;;;7.25;3.88;;;;;;;;;;4922877;29;20035;-78
2023/02/08 12:01:44;;;;;;;7.93;3.30;;;;;;;;;;4940056;29;20386;-79
2023/02/08 12:04:11;;;;;;;12.30;3.92;;;;;;;;;;4943703;29;20241;-79
2023/02/08 12:06:45;;;;;;;13.25;4.35;;;;;;;;;;4940468;29;20024;-80
2023/02/08 12:09:29;;;;;;;7.32;3.95;;;;;;;;;;4940283;29;20059;-79
2023/02/08 12:12:14;;;;;;;10.55;3.92;;;;;;;;;;4937900;29;20028;-78
2023/02/08 12:14:46;;;;;;;6.88;4.10;;;;;;;;;;4941435;29;20031;-79
2023/02/08 12:17:15;;;;;;;7.53;4.28;;;;;;;;;;4942272;29;20039;-80
2023/02/08 12:19:50;;;;;;;9.70;3.92;;;;;;;;;;4937128;29;20032;-78
2023/02/08 12:22:18;;;;;;;10.70;3.92;;;;;;;;;;4937612;29;20541;-78
2023/02/08 12:24:58;;;;;;;15.07;5.32;;;;;;;;;;4933930;29;20032;-79
2023/02/08 12:27:31;;;;;;;9.00;3.63;;;;;;;;;;4940046;29;20031;-78
2023/02/08 12:30:16;;;;;;;8.18;5.05;;;;;;;;;;4939917;29;20035;-78
2023/02/08 12:33:20;;;;;;;11.00;4.27;;;;;;;;;;4941524;29;20118;-78
2023/02/08 12:35:52;;;;;;;7.38;3.83;;;;;;;;;;4884582;29;20115;-78
2023/02/08 12:41:30;;;;;;;8.50;4.25;;;;;;;;;;4925380;29;20421;-78
2023/02/08 12:43:57;;;;;;;7.72;3.92;;;;;;;;;;4940344;29;20039;-78
2023/02/08 12:46:33;;;;;;;7.85;3.83;;;;;;;;;;4937778;29;20022;-77
2023/02/08 12:48:58;;;;;;;;;;;;;;;;;;4942964;29;20094;-80
2023/02/08 12:51:45;;;;;;;12.52;4.60;;;;;;;;;;4943223;29;19915;-79
2023/02/08 12:54:27;;;;;;;11.75;4.18;;;;;;;;;;4905226;29;20038;-78
2023/02/08 12:56:55;;;;;;;8.27;4.43;;;;;;;;;;4920531;29;20030;-79
2023/02/08 12:59:24;;;;;;;11.05;4.03;;;;;;;;;;4940785;29;20474;-77
2023/02/08 13:01:55;;;;;;;7.20;4.10;;;;;;;;;;4936704;29;20031;-78
2023/02/08 13:04:32;;;;;;;9.45;4.30;;;;;;;;;;4936782;29;20025;-78
2023/02/08 13:07:00;;;;;;;11.63;4.50;;;;;;;;;;4918803;29;20122;-78
2023/02/08 13:09:32;;;;;;;7.60;3.90;;;;;;;;;;4914103;29;20072;-79
2023/02/08 13:12:07;;;;;;;12.48;4.60;;;;;;;;;;4908963;29;20027;-78
2023/02/08 13:14:36;;;;;;;14.55;5.03;;;;;;;;;;4909810;29;20035;-77
2023/02/08 13:17:06;;;;;;;12.45;4.90;;;;;;;;;;4908571;29;20554;-77
2023/02/08 13:19:38;;;;;;;9.05;4.45;;;;;;;;;;4906201;29;20040;-78
2023/02/08 13:22:04;;;;;;;12.43;5.20;;;;;;;;;;4909541;29;20028;-79
2023/02/08 13:24:33;;;;;;;12.68;5.68;;;;;;;;;;4912820;29;20526;-77
2023/02/08 13:27:00;;;;;;;7.07;4.20;;;;;;;;;;4919598;29;20032;-79
2023/02/08 13:29:26;;;;;;;8.20;4.10;;;;;;;;;;4924666;29;20391;-79
2023/02/08 13:32:11;;;;;;;10.95;4.38;;;;;;;;;;4917852;29;20079;-78
2023/02/08 13:34:40;;;;;;;8.60;4.85;;;;;;;;;;4916218;29;20577;-79
2023/02/08 13:37:17;;;;;;;7.65;4.28;;;;;;;;;;4916851;29;20036;-79
2023/02/08 13:39:45;;;;;;;11.55;5.03;;;;;;;;;;4919197;29;20036;-78
2023/02/08 13:42:29;;;;;;;13.25;4.57;;;;;;;;;;4924819;29;20028;-79
2023/02/08 13:44:56;;;;;;;15.57;4.97;;;;;;;;;;4917249;29;20040;-76
2023/02/08 13:47:33;;;;;;;11.98;4.68;;;;;;;;;;4935423;29;20071;-78
2023/02/08 13:50:03;;;;;;;10.80;4.40;;;;;;;;;;4921189;29;20028;-79
2023/02/08 13:52:33;;;;;;;7.53;3.95;;;;;;;;;;4923842;29;20040;-80
2023/02/08 13:55:17;;;;;;;12.77;4.63;;;;;;;;;;4924801;29;20088;-78
2023/02/08 13:57:51;;;;;;;12.27;5.13;;;;;;;;;;4917696;29;20028;-80
2023/02/08 14:00:20;;;;;;;10.90;4.28;;;;;;;;;;4908412;29;20573;-78
2023/02/08 14:02:59;;;;;;;12.73;3.83;;;;;;;;;;4913021;29;20028;-78
2023/02/08 14:05:44;;;;;;;5.82;3.90;;;;;;;;;;4910030;29;20423;-78
2023/02/08 14:08:25;;;;;;;7.73;3.67;;;;;;;;;;4902840;29;20035;-79
2023/02/08 14:11:04;;;;;;;13.32;4.15;;;;;;;;;;4925399;29;20128;-79
2023/02/08 14:13:35;;;;;;;8.15;3.90;;;;;;;;;;4931423;29;20135;-77
2023/02/08 14:16:20;;;;;;;10.32;4.93;;;;;;;;;;4931192;29;20024;-82
2023/02/08 14:18:59;;;;;;;8.75;3.88;;;;;;;;;;4927530;29;20031;-77
2023/02/08 14:21:46;;;;;;;10.32;3.47;;;;;;;;;;4925426;29;20107;-78
2023/02/08 14:24:23;;;;;;;7.25;3.80;;;;;;;;;;4922993;29;20032;-80
2023/02/08 14:26:49;;;;;;;7.45;3.60;;;;;;;;;;4925199;29;20028;-78
2023/02/08 14:29:25;;;;;;;7.60;3.53;;;;;;;;;;4925292;29;20086;-78
2023/02/08 14:31:52;;;;;;;10.57;4.75;;;;;;;;;;4927074;29;20059;-78
2023/02/08 14:34:28;;;;;;;11.10;3.78;;;;;;;;;;4926537;29;20050;-78
2023/02/08 14:37:02;;;;;;;8.90;3.60;;;;;;;;;;4909908;29;20503;-78
2023/02/08 14:39:32;;;;;;;13.82;3.90;;;;;;;;;;4928621;29;20095;-77
2023/02/08 14:42:04;;;;;;;11.23;3.92;;;;;;;;;;4928823;29;20023;-79
2023/02/08 14:44:46;;;;;;;10.13;3.80;;;;;;;;;;4924580;29;20035;-77
2023/02/08 14:47:25;;;;;;;7.85;3.67;;;;;;;;;;4924601;29;20038;-78
2023/02/08 14:49:57;;;;;;;8.30;3.47;;;;;;;;;;4924623;29;20027;-78
2023/02/08 14:52:25;;;;;;;6.88;3.83;;;;;;;;;;4927882;29;20039;-77
2023/02/08 14:54:59;;;;;;;7.05;3.83;;;;;;;;;;4931615;29;20401;-77
2023/02/08 14:57:25;;;;;;;7.55;3.97;;;;;;;;;;4916176;29;20028;-80